Terminal Aerodrome Forecast
Issued by NWS

Home | Current Version | Previous Version | Text Only | Print | Product List | Glossary On
Versions: 1 2 3 4 5 6 7 8 9 10 11 12 13 14
000
FTUS43 KIND 231900 AAA
TAFHUF
TAF AMD
KHUF 231925Z 2319/2418 14012KT 3SM -SHRA BR BKN008 OVC020
     FM232200 14013KT 3SM SHRA BR OVC007
     FM240200 19013G20KT 3SM SHRA BR OVC006
     FM241100 24015G25KT 5SM -SHRA BR OVC012
     FM241600 24020G28KT P6SM OVC030=

USA.gov is the U.S. government's official web portal to all federal, state and local government web resources and services.